Lostant, Illinois
Current Conditions -  °F | °C
As of 11:55 PM on Sunday 19 Oct 2014 (Local Time) from KVYS Reporting Station
Clear Clear  
Wind Chill: 53°   Ceiling: Unl
Heat Index: 53°   Visibility: 10mi
Dew Point: 45°   Wind: 12mph
Humidity: 74%   Direction: 220°SW
Pressure: 29.93"   Gusts: NA
Location:  41.14°N, 89.06°W
Report Text: KVYS 200455Z AUTO 22010KT 10SM CLR 12/07 A2993 RMK AO2 T01160072
Loading
Personal Weather Stations






























Interactive Weather Map New forecast layout! Learn more

10-Day Weather Forecast

Advertisements
Track Severe Weather on mobile